Time;durP1;ratioP1;P1;durP2;ratioP2;P2;SDS_P1;SDS_P2;PMS_P1;PMS_P2;Temp;Humidity;BMP_temperature;BMP_pressure;BME280_temperature;BME280_humidity;BME280_pressure;Samples;Min_cycle;Max_cycle;Signal;HPM_P1;HPM_P2
2022/10/11 00:01:02;;;;;;;;;;;;;;;3.32;80.74;100339.72;1717410;83;21103;-79
2022/10/11 00:03:30;;;;;;;;;;;;;;;3.27;80.41;100335.77;1717190;83;20476;-80
2022/10/11 00:05:57;;;;;;;;;;;;;;;3.23;80.45;100335.31;1717192;83;20220;-78
2022/10/11 00:08:24;;;;;;;;;;;;;;;3.19;80.42;100330.92;1717150;83;20231;-80
2022/10/11 00:11:01;;;;;;;;;;;;;;;3.15;80.67;100326.57;1717127;83;20236;-80
2022/10/11 00:13:28;;;;;;;;;;;;;;;3.11;81.01;100328.69;1717364;83;21138;-80
2022/10/11 00:15:55;;;;;;;;;;;;;;;3.07;81.24;100321.29;1717184;83;20212;-80
2022/10/11 00:18:21;;;;;;;;;;;;;;;3.07;81.33;100321.73;1717372;83;20223;-81
2022/10/11 00:20:48;;;;;;;;;;;;;;;3.04;81.36;100319.09;1717637;83;20568;-79
2022/10/11 00:23:14;;;;;;;;;;;;;;;3.01;81.21;100315.16;1717381;83;20227;-79
2022/10/11 00:25:41;;;;;;;;;;;;;;;2.94;81.08;100317.73;1717474;83;21133;-80
2022/10/11 00:28:07;;;;;;;;;;;;;;;2.91;81.10;100316.84;1713955;83;20204;-77
2022/10/11 00:30:34;;;;;;;;;;;;;;;2.87;80.97;100319.80;1708488;84;20200;-79
2022/10/11 00:33:00;;;;;;;;;;;;;;;2.85;81.01;100317.63;1708566;84;20488;-80
2022/10/11 00:35:26;;;;;;;;;;;;;;;2.83;81.02;100318.05;1708782;84;20243;-80
2022/10/11 00:37:55;;;;;;;;;;;;;;;2.80;81.33;100314.11;1708785;84;21158;-80
2022/10/11 00:40:21;;;;;;;;;;;;;;;2.78;81.65;100310.63;1708415;84;20197;-79
2022/10/11 00:42:48;;;;;;;;;;;;;;;2.75;81.95;100309.30;1708432;84;20146;-79
2022/10/11 00:45:34;;;;;;;;;;;;;;;2.72;81.99;100304.96;1708466;84;20193;-80
2022/10/11 00:48:03;;;;;;;;;;;;;;;2.70;81.85;100304.05;1708773;84;20232;-79
2022/10/11 00:50:30;;;;;;;;;;;;;;;2.69;81.69;100310.52;1708645;84;22299;-79
2022/10/11 00:52:59;;;;;;;;;;;;;;;2.67;81.73;100308.34;1708669;84;20177;-78
2022/10/11 00:55:26;;;;;;;;;;;;;;;2.65;82.18;100307.47;1708825;84;20169;-78
2022/10/11 00:57:52;;;;;;;;;;;;;;;2.64;82.58;100305.71;1708979;84;20201;-79
2022/10/11 01:00:20;;;;;;;;;;;;;;;2.64;82.70;100309.61;1708794;84;20245;-80
2022/10/11 01:02:46;;;;;;;;;;;;;;;2.58;82.59;100306.09;1708767;84;21201;-79
2022/10/11 01:05:15;;;;;;;;;;;;;;;2.56;82.35;100303.91;1708979;84;20145;-79
2022/10/11 01:07:41;;;;;;;;;;;;;;;2.54;82.08;100306.03;1708552;84;20228;-80
2022/10/11 01:10:08;;;;;;;;;;;;;;;2.51;82.25;100313.39;1708746;84;20204;-79
2022/10/11 01:12:36;;;;;;;;;;;;;;;2.47;82.47;100312.92;1709216;84;20244;-80
2022/10/11 01:15:06;;;;;;;;;;;;;;;2.45;82.89;100313.74;1706530;84;21176;-79
2022/10/11 01:17:47;;;;;;;;;;;;;;;2.43;83.25;100309.83;1708490;84;20223;-80
2022/10/11 01:20:33;;;;;;;;;;;;;;;2.44;83.50;100308.98;1708605;84;20255;-79
2022/10/11 01:23:19;;;;;;;;;;;;;;;2.49;83.45;100312.91;1708930;84;20173;-80
2022/10/11 01:26:04;;;;;;;;;;;;;;;2.50;83.51;100309.03;1708609;84;21041;-80
2022/10/11 01:28:52;;;;;;;;;;;;;;;2.51;83.70;100311.23;1708691;83;21143;-79
2022/10/11 01:31:25;;;;;;;;;;;;;;;2.50;83.68;100307.73;1708891;83;20158;-79
2022/10/11 01:34:01;;;;;;;;;;;;;;;2.48;83.32;100317.24;1708581;84;20149;-79
2022/10/11 01:36:33;;;;;;;;;;;;;;;2.46;83.52;100313.77;1708524;84;20427;-79
2022/10/11 01:39:13;;;;;;;;;;;;;;;2.46;83.76;100323.30;1708578;84;20236;-79
2022/10/11 01:41:42;;;;;;;;;;;;;;;2.46;84.23;100313.77;1708594;84;21899;-80
2022/10/11 01:44:10;;;;;;;;;;;;;;;2.45;84.54;100327.59;1708517;84;20275;-79
2022/10/11 01:46:37;;;;;;;;;;;;;;;2.45;84.86;100325.00;1708495;84;20197;-79
2022/10/11 01:49:03;;;;;;;;;;;;;;;2.43;84.97;100329.31;1708865;84;20491;-79
2022/10/11 01:51:40;;;;;;;;;;;;;;;2.42;85.58;100327.55;1708895;84;20216;-80
2022/10/11 01:54:24;;;;;;;;;;;;;;;2.42;85.83;100330.15;1708619;84;21266;-80
2022/10/11 01:57:03;;;;;;;;;;;;;;;2.40;86.00;100332.76;1708847;84;20177;-80
2022/10/11 01:59:36;;;;;;;;;;;;;;;2.38;86.06;100328.39;1708609;83;20233;-81
2022/10/11 02:02:12;;;;;;;;;;;;;;;2.38;85.94;100328.39;1708599;84;20260;-80
2022/10/11 02:04:45;;;;;;;;;;;;;;;2.38;85.79;100327.09;1708265;84;20208;-80
2022/10/11 02:07:18;;;;;;;;;;;;;;;2.41;85.85;100331.02;1708751;84;21140;-80
2022/10/11 02:09:57;;;;;;;;;;;;;;;2.40;85.85;100328.86;1708488;84;20346;-80
2022/10/11 02:12:27;;;;;;;;;;;;;;;2.40;85.88;100331.86;1709132;84;20212;-80
2022/10/11 02:14:55;;;;;;;;;;;;;;;2.40;85.69;100325.37;1708364;84;20209;-81
2022/10/11 02:17:22;;;;;;;;;;;;;;;2.41;85.41;100324.53;1708736;84;20208;-81
2022/10/11 02:19:51;;;;;;;;;;;;;;;2.39;84.98;100326.24;1708481;84;21078;-81
2022/10/11 02:22:23;;;;;;;;;;;;;;;2.39;84.54;100321.05;1708911;84;20448;-80
2022/10/11 02:24:50;;;;;;;;;;;;;;;2.34;84.16;100317.09;1708539;84;20150;-80
2022/10/11 02:27:19;;;;;;;;;;;;;;;2.29;84.18;100322.66;1708603;84;20202;-81
2022/10/11 02:29:45;;;;;;;;;;;;;;;2.26;84.70;100316.56;1713065;83;20208;-80
2022/10/11 02:32:12;;;;;;;;;;;;;;;2.22;84.96;100316.52;1714488;83;21074;-81
2022/10/11 02:34:46;;;;;;;;;;;;;;;2.20;85.33;100323.42;1714215;83;20174;-80
2022/10/11 02:37:21;;;;;;;;;;;;;;;2.21;85.51;100322.55;1714295;83;20204;-80
2022/10/11 02:40:12;;;;;;;;;;;;;;;2.20;85.30;100326.02;1713977;83;20432;-81
2022/10/11 02:42:43;;;;;;;;;;;;;;;2.17;84.99;100324.68;1714450;83;20201;-80
2022/10/11 02:45:18;;;;;;;;;;;;;;;2.13;84.84;100323.31;1714465;83;21165;-81
2022/10/11 02:47:45;;;;;;;;;;;;;;;2.10;84.64;100326.77;1714790;83;20169;-80
2022/10/11 02:50:12;;;;;;;;;;;;;;;2.08;84.37;100323.25;1714404;83;20244;-80
2022/10/11 02:52:39;;;;;;;;;;;;;;;2.07;84.00;100325.83;1714410;83;20218;-80
2022/10/11 02:55:06;;;;;;;;;;;;;;;2.02;84.42;100330.98;1714261;83;20207;-80
2022/10/11 02:57:32;;;;;;;;;;;;;;;1.97;84.26;100328.31;1714690;83;21130;-80
2022/10/11 02:59:58;;;;;;;;;;;;;;;1.95;84.32;100330.43;1714258;83;20134;-80
2022/10/11 03:02:25;;;;;;;;;;;;;;;1.94;84.50;100327.41;1714291;83;20530;-80
2022/10/11 03:04:51;;;;;;;;;;;;;;;1.94;84.46;100328.70;1714513;83;20522;-82
2022/10/11 03:07:18;;;;;;;;;;;;;;;1.93;84.08;100326.95;1714464;83;20232;-80
2022/10/11 03:09:46;;;;;;;;;;;;;;;1.91;84.11;100327.36;1714237;83;20153;-78
2022/10/11 03:12:12;;;;;;;;;;;;;;;1.89;84.18;100322.58;1714426;83;20171;-80
2022/10/11 03:14:40;;;;;;;;;;;;;;;1.85;84.48;100319.94;1714272;83;20213;-80
2022/10/11 03:17:06;;;;;;;;;;;;;;;1.84;84.51;100323.38;1714349;83;20219;-80
2022/10/11 03:19:33;;;;;;;;;;;;;;;1.83;84.56;100326.84;1714727;83;20220;-82
2022/10/11 03:21:59;;;;;;;;;;;;;;;1.82;84.81;100327.67;1714116;83;21231;-81
2022/10/11 03:24:26;;;;;;;;;;;;;;;1.80;85.04;100324.59;1714321;83;20467;-81
2022/10/11 03:26:52;;;;;;;;;;;;;;;1.77;85.06;100322.84;1714702;83;20213;-81
2022/10/11 03:29:18;;;;;;;;;;;;;;;1.75;84.80;100324.95;1711663;83;20255;-82
2022/10/11 03:31:45;;;;;;;;;;;;;;;1.71;84.57;100326.64;1708971;84;20329;-81
2022/10/11 03:34:11;;;;;;;;;;;;;;;1.70;84.44;100326.22;1708667;84;21165;-82
2022/10/11 03:36:38;;;;;;;;;;;;;;;1.70;84.45;100322.33;1709031;84;20152;-82
2022/10/11 03:39:04;;;;;;;;;;;;;;;1.69;84.51;100323.16;1708559;84;20263;-81
2022/10/11 03:41:31;;;;;;;;;;;;;;;1.66;84.23;100327.00;1708593;84;20235;-81
2022/10/11 03:43:58;;;;;;;;;;;;;;;1.62;83.84;100326.53;1708727;84;20163;-81
2022/10/11 03:46:24;;;;;;;;;;;;;;;1.58;84.29;100322.13;1708668;84;21097;-81
2022/10/11 03:48:50;;;;;;;;;;;;;;;1.58;84.74;100322.13;1708413;84;20443;-81
2022/10/11 03:51:17;;;;;;;;;;;;;;;1.58;85.01;100320.83;1708693;84;20205;-81
2022/10/11 03:53:44;;;;;;;;;;;;;;;1.57;85.14;100326.45;1708801;84;20197;-81
2022/10/11 03:56:11;;;;;;;;;;;;;;;1.55;84.92;100314.33;1708720;84;20237;-81
2022/10/11 03:58:37;;;;;;;;;;;;;;;1.53;85.06;100318.59;1708893;84;21086;-81
2022/10/11 04:01:03;;;;;;;;;;;;;;;1.53;85.24;100319.89;1708549;84;20686;-81
2022/10/11 04:03:29;;;;;;;;;;;;;;;1.55;85.28;100322.11;1708767;84;20484;-81
2022/10/11 04:05:56;;;;;;;;;;;;;;;1.54;85.29;100321.64;1708754;84;20225;-81
2022/10/11 04:08:22;;;;;;;;;;;;;;;1.52;85.32;100319.46;1708818;84;20207;-81
2022/10/11 04:10:50;;;;;;;;;;;;;;;1.51;85.43;100322.89;1708705;84;20134;-83
2022/10/11 04:13:16;;;;;;;;;;;;;;;1.49;85.34;100330.21;1708773;84;20197;-81
2022/10/11 04:15:45;;;;;;;;;;;;;;;1.46;85.15;100326.30;1709106;84;20214;-81
2022/10/11 04:18:13;;;;;;;;;;;;;;;1.46;85.13;100332.78;1708454;84;20226;-81
2022/10/11 04:20:40;;;;;;;;;;;;;;;1.43;85.27;100334.43;1709003;84;20225;-82
2022/10/11 04:23:06;;;;;;;;;;;;;;;1.42;85.57;100336.59;1708718;84;21150;-81
2022/10/11 04:25:36;;;;;;;;;;;;;;;1.41;86.10;100338.33;1708671;84;20166;-81
2022/10/11 04:28:21;;;;;;;;;;;;;;;1.40;86.69;100343.05;1708910;84;20198;-78
2022/10/11 04:31:06;;;;;;;;;;;;;;;1.37;87.36;100340.41;1710117;83;20150;-78
2022/10/11 04:33:33;;;;;;;;;;;;;;;1.35;87.86;100347.29;1714419;83;20196;-80
2022/10/11 04:36:00;;;;;;;;;;;;;;;1.34;88.05;100342.94;1714587;83;21916;-81
2022/10/11 04:38:27;;;;;;;;;;;;;;;1.35;88.09;100351.18;1714243;83;20561;-80
2022/10/11 04:40:53;;;;;;;;;;;;;;;1.37;88.13;100352.07;1714013;83;20138;-80
2022/10/11 04:43:19;;;;;;;;;;;;;;;1.41;88.23;100350.39;1714524;83;20229;-81
2022/10/11 04:45:46;;;;;;;;;;;;;;;1.42;88.51;100352.16;1714276;83;20220;-81
2022/10/11 04:48:13;;;;;;;;;;;;;;;1.40;88.94;100358.61;1714251;83;21095;-80
2022/10/11 04:50:40;;;;;;;;;;;;;;;1.38;89.36;100356.82;1714183;83;20173;-80
2022/10/11 04:53:07;;;;;;;;;;;;;;;1.39;89.67;100352.96;1714596;83;20216;-80
2022/10/11 04:55:35;;;;;;;;;;;;;;;1.42;89.85;100350.42;1714165;83;20229;-80
2022/10/11 04:58:01;;;;;;;;;;;;;;;1.48;89.97;100353.13;1714384;83;20208;-80
2022/10/11 05:00:28;;;;;;;;;;;;;;;1.54;90.09;100350.17;1714268;83;21944;-79
2022/10/11 05:02:54;;;;;;;;;;;;;;;1.59;90.13;100345.92;1714168;83;20205;-81
2022/10/11 05:05:20;;;;;;;;;;;;;;;1.63;90.18;100346.41;1714673;83;20208;-80
2022/10/11 05:07:47;;;;;;;;;;;;;;;1.71;90.24;100346.09;1714314;83;20384;-81
2022/10/11 05:10:14;;;;;;;;;;;;;;;1.78;90.27;100346.66;1714293;83;20506;-80
2022/10/11 05:12:41;;;;;;;;;;;;;;;1.85;90.33;100342.43;1714259;83;21108;-79
2022/10/11 05:15:08;;;;;;;;;;;;;;;1.92;90.29;100347.28;1714334;83;20232;-80
2022/10/11 05:17:36;;;;;;;;;;;;;;;2.00;90.25;100349.13;1714357;83;20204;-80
2022/10/11 05:20:03;;;;;;;;;;;;;;;2.11;90.30;100351.85;1714550;83;20228;-80
2022/10/11 05:22:29;;;;;;;;;;;;;;;2.21;90.46;100356.74;1714100;83;20200;-80
2022/10/11 05:24:55;;;;;;;;;;;;;;;2.28;90.77;100349.47;1714363;83;21125;-80
2022/10/11 05:27:22;;;;;;;;;;;;;;;2.33;91.16;100337.84;1714507;83;20169;-81
2022/10/11 05:29:48;;;;;;;;;;;;;;;2.41;91.56;100341.41;1714276;83;20201;-82
2022/10/11 05:32:14;;;;;;;;;;;;;;;2.49;91.94;100341.08;1710717;83;20546;-81
2022/10/11 05:34:41;;;;;;;;;;;;;;;2.57;92.18;100339.44;1708634;84;20158;-81
2022/10/11 05:37:08;;;;;;;;;;;;;;;2.65;92.56;100343.84;1708736;84;21307;-81
2022/10/11 05:39:34;;;;;;;;;;;;;;;2.71;92.78;100337.42;1708571;84;20181;-80
2022/10/11 05:42:00;;;;;;;;;;;;;;;2.81;92.99;100334.06;1708925;84;20198;-82
2022/10/11 05:44:26;;;;;;;;;;;;;;;2.91;93.09;100335.03;1708563;84;20928;-81
2022/10/11 05:46:53;;;;;;;;;;;;;;;3.03;93.35;100331.67;1708684;84;20543;-80
2022/10/11 05:49:19;;;;;;;;;;;;;;;3.12;93.47;100331.30;1708826;84;21216;-81
2022/10/11 05:51:46;;;;;;;;;;;;;;;3.26;93.58;100338.35;1708562;84;20188;-80
2022/10/11 05:54:13;;;;;;;;;;;;;;;3.40;93.55;100338.48;1708562;84;20154;-81
2022/10/11 05:56:39;;;;;;;;;;;;;;;3.54;93.49;100331.64;1708502;84;20188;-81
2022/10/11 05:59:05;;;;;;;;;;;;;;;3.67;93.39;100337.38;1708693;84;20153;-80
2022/10/11 06:01:32;;;;;;;;;;;;;;;3.78;93.42;100337.42;1708790;84;21190;-81
2022/10/11 06:03:58;;;;;;;;;;;;;;;3.89;93.48;100341.41;1708897;84;20185;-81
2022/10/11 06:06:25;;;;;;;;;;;;;;;4.02;93.44;100344.53;1708623;84;20256;-81
2022/10/11 06:08:52;;;;;;;;;;;;;;;4.15;93.40;100338.93;1708416;84;20256;-81
2022/10/11 06:11:21;;;;;;;;;;;;;;;4.28;93.19;100346.38;1708507;84;20328;-81
2022/10/11 06:13:49;;;;;;;;;;;;;;;4.39;92.92;100337.33;1708718;84;20475;-80
2022/10/11 06:16:16;;;;;;;;;;;;;;;4.51;92.75;100341.27;1708821;84;21107;-81
2022/10/11 06:18:43;;;;;;;;;;;;;;;4.67;92.57;100347.38;1708515;84;20519;-81
2022/10/11 06:21:10;;;;;;;;;;;;;;;4.79;92.24;100344.83;1708522;84;20208;-81
2022/10/11 06:23:36;;;;;;;;;;;;;;;4.93;91.99;100345.29;1708332;84;20197;-81
2022/10/11 06:26:05;;;;;;;;;;;;;;;5.07;92.10;100351.83;1708618;84;21506;-80
2022/10/11 06:28:33;;;;;;;;;;;;;;;5.20;91.65;100354.88;1708291;84;20169;-81
2022/10/11 06:30:59;;;;;;;;;;;;;;;5.35;90.77;100347.50;1708842;84;20184;-80
2022/10/11 06:33:26;;;;;;;;;;;;;;;5.46;90.34;100340.96;1708315;84;20887;-81
2022/10/11 06:35:57;;;;;;;;;;;;;;;5.57;90.17;100342.69;1708452;84;20530;-79
2022/10/11 06:38:25;;;;;;;;;;;;;;;5.72;90.17;100343.11;1708711;84;21969;-82
2022/10/11 06:40:51;;;;;;;;;;;;;;;5.86;89.53;100340.47;1708777;84;20466;-80
2022/10/11 06:43:18;;;;;;;;;;;;;;;6.02;89.06;100339.16;1708549;84;20674;-82
2022/10/11 06:45:44;;;;;;;;;;;;;;;6.17;88.81;100335.21;1708568;84;20134;-81
2022/10/11 06:48:10;;;;;;;;;;;;;;;6.37;88.00;100329.02;1708778;84;20223;-81
2022/10/11 06:50:37;;;;;;;;;;;;;;;6.54;87.06;100323.70;1708701;84;21124;-81
2022/10/11 06:53:05;;;;;;;;;;;;;;;6.71;86.16;100325.81;1708618;84;20184;-82
2022/10/11 06:55:32;;;;;;;;;;;;;;;6.90;85.78;100325.25;1708637;84;20229;-82
2022/10/11 06:57:58;;;;;;;;;;;;;;;7.10;84.46;100329.48;1708823;84;20142;-78
2022/10/11 07:00:24;;;;;;;;;;;;;;;7.27;84.00;100328.91;1708606;84;20225;-81
2022/10/11 07:02:51;;;;;;;;;;;;;;;7.44;83.70;100323.07;1709004;84;21126;-83
2022/10/11 07:05:17;;;;;;;;;;;;;;;7.64;82.80;100328.58;1708355;84;20356;-81
2022/10/11 07:07:44;;;;;;;;;;;;;;;7.81;81.65;100325.34;1708601;84;20224;-82
2022/10/11 07:10:11;;;;;;;;;;;;;;;7.98;80.87;100333.47;1708402;84;20208;-84
2022/10/11 07:12:37;;;;;;;;;;;;;;;8.09;80.42;100325.05;1708760;84;20178;-82
2022/10/11 07:15:04;;;;;;;;;;;;;;;8.22;79.27;100326.21;1708579;84;22314;-81
2022/10/11 07:17:32;;;;;;;;;;;;;;;8.34;77.38;100325.63;1708683;84;20193;-82
2022/10/11 07:19:59;;;;;;;;;;;;;;;8.46;77.05;100326.41;1708754;84;20212;-81
2022/10/11 07:22:26;;;;;;;;;;;;;;;8.56;76.20;100320.14;1708596;84;20178;-81
2022/10/11 07:24:52;;;;;;;;;;;;;;;8.69;75.44;100318.20;1679790;84;20196;-81
2022/10/11 07:27:21;;;;;;;;;;;;;;;8.82;75.19;100321.53;1708590;84;21128;-82
2022/10/11 07:29:49;;;;;;;;;;;;;;;9.00;74.88;100320.40;1709104;84;20169;-81
2022/10/11 07:32:15;;;;;;;;;;;;;;;9.15;73.69;100320.16;1708707;84;20268;-83
2022/10/11 07:34:42;;;;;;;;;;;;;;;9.29;73.20;100320.78;1708794;84;20193;-81
2022/10/11 07:37:09;;;;;;;;;;;;;;;9.44;71.79;100318.80;1708669;84;20173;-82
2022/10/11 07:39:35;;;;;;;;;;;;;;;9.53;70.63;100317.77;1709055;84;21117;-83
2022/10/11 07:42:02;;;;;;;;;;;;;;;9.63;69.34;100312.34;1708655;84;20188;-81
2022/10/11 07:44:29;;;;;;;;;;;;;;;9.73;68.27;100309.54;1708554;84;20305;-83
2022/10/11 07:46:55;;;;;;;;;;;;;;;9.88;68.54;100306.61;1709019;84;20201;-83
2022/10/11 07:49:21;;;;;;;;;;;;;;;10.06;68.81;100297.97;1708640;84;20180;-81
2022/10/11 07:51:48;;;;;;;;;;;;;;;10.28;66.95;100300.56;1708923;84;21271;-81
2022/10/11 07:54:14;;;;;;;;;;;;;;;10.49;64.93;100291.83;1708730;84;20209;-82
2022/10/11 07:56:40;;;;;;;;;;;;;;;10.66;63.04;100291.02;1708927;84;20245;-82
2022/10/11 07:59:07;;;;;;;;;;;;;;;10.81;62.70;100288.92;1708718;84;20173;-80
2022/10/11 08:01:33;;;;;;;;;;;;;;;10.98;61.34;100289.41;1709033;84;20173;-81
2022/10/11 08:03:59;;;;;;;;;;;;;;;11.11;60.64;100286.90;1708618;84;21262;-81
2022/10/11 08:06:29;;;;;;;;;;;;;;;11.27;60.08;100283.88;1708689;84;20229;-81
2022/10/11 08:08:56;;;;;;;;;;;;;;;11.41;59.17;100288.33;1708820;84;20503;-82
2022/10/11 08:11:26;;;;;;;;;;;;;;;11.56;58.03;100292.34;1708318;84;20189;-82
2022/10/11 08:13:52;;;;;;;;;;;;;;;11.66;57.25;100289.02;1708535;84;20229;-81
2022/10/11 08:16:19;;;;;;;;;;;;;;;11.78;56.22;100282.08;1708756;84;21090;-82
2022/10/11 08:18:46;;;;;;;;;;;;;;;11.91;55.43;100287.92;1708663;84;20201;-82
2022/10/11 08:21:14;;;;;;;;;;;;;;;12.03;54.96;100288.03;1708735;84;20224;-82
2022/10/11 08:23:40;;;;;;;;;;;;;;;12.14;54.50;100287.28;1708868;84;20150;-80
2022/10/11 08:26:07;;;;;;;;;;;;;;;12.23;53.91;100285.69;1708712;84;20178;-82
2022/10/11 08:28:33;;;;;;;;;;;;;;;12.26;53.00;100286.92;1709134;84;21783;-81
2022/10/11 08:31:00;;;;;;;;;;;;;;;12.31;52.90;100285.94;1708735;84;20225;-84
2022/10/11 08:33:26;;;;;;;;;;;;;;;12.36;51.80;100281.39;1712758;83;20205;-83
2022/10/11 08:35:54;;;;;;;;;;;;;;;12.45;51.24;100285.05;1714108;83;20208;-82
2022/10/11 08:38:20;;;;;;;;;;;;;;;12.55;50.90;100279.91;1714287;83;20153;-83
2022/10/11 08:40:48;;;;;;;;;;;;;;;12.61;50.61;100282.36;1714411;83;21807;-81
2022/10/11 08:43:18;;;;;;;;;;;;;;;12.67;49.80;100279.12;1714229;83;20586;-82
2022/10/11 08:45:47;;;;;;;;;;;;;;;12.72;49.85;100281.16;1707653;83;20255;-83
2022/10/11 08:48:17;;;;;;;;;;;;;;;12.75;49.78;100275.80;1714093;83;20498;-82
2022/10/11 08:50:46;;;;;;;;;;;;;;;12.88;50.05;100269.21;1714117;83;20248;-83
2022/10/11 08:53:16;;;;;;;;;;;;;;;13.09;50.08;100272.06;1714931;83;21072;-82
2022/10/11 08:55:46;;;;;;;;;;;;;;;13.30;50.48;100274.00;1716153;83;20133;-82
2022/10/11 08:58:14;;;;;;;;;;;;;;;13.47;49.47;100270.80;1714718;83;20579;-83
2022/10/11 09:00:40;;;;;;;;;;;;;;;13.54;47.97;100273.64;1714627;83;20200;-80
2022/10/11 09:03:27;;;;;;;;;;;;;;;13.55;45.88;100275.84;1714467;83;20150;-82
2022/10/11 09:06:15;;;;;;;;;;;;;;;13.53;46.83;100269.72;1713995;83;20529;-79
2022/10/11 09:09:03;;;;;;;;;;;;;;;13.56;46.48;100265.66;1714308;83;20546;-82
2022/10/11 09:11:44;;;;;;;;;;;;;;;13.68;47.58;100266.53;1713994;83;20141;-80
2022/10/11 09:14:30;;;;;;;;;;;;;;;13.78;43.50;100255.64;1712168;83;20229;-81
2022/10/11 09:17:04;;;;;;;;;;;;;;;13.79;43.48;100263.52;1714289;83;20233;-81
2022/10/11 09:19:40;;;;;;;;;;;;;;;13.84;44.43;100259.40;1713993;83;21741;-81
2022/10/11 09:22:25;;;;;;;;;;;;;;;14.01;44.88;100260.95;1713993;83;20374;-79
2022/10/11 09:25:12;;;;;;;;;;;;;;;14.08;43.88;100263.77;1688230;83;20197;-81
2022/10/11 09:28:19;;;;;;;;;;;;;;;14.09;43.86;100249.63;1714386;83;20155;-80
2022/10/11 09:30:47;;;;;;;;;;;;;;;14.22;43.94;100252.69;1714020;83;20223;-82
2022/10/11 09:33:32;;;;;;;;;;;;;;;14.42;43.45;100251.89;1714304;83;20982;-81
2022/10/11 09:35:58;;;;;;;;;;;;;;;14.56;42.28;100255.80;1716219;83;20324;-82
2022/10/11 09:38:49;;;;;;;;;;;;;;;14.60;42.14;100252.16;1715615;83;20530;-82
2022/10/11 09:41:19;;;;;;;;;;;;;;;14.61;42.52;100249.92;1713238;83;20216;-81
2022/10/11 09:43:49;;;;;;;;;;;;;;;14.67;43.26;100248.33;1714158;83;20228;-80
2022/10/11 09:46:25;;;;;;;;;;;;;;;14.71;41.91;100245.09;1714152;83;21273;-81
2022/10/11 09:48:53;;;;;;;;;;;;;;;14.64;42.46;100245.80;1714370;83;20189;-81
2022/10/11 09:51:20;;;;;;;;;;;;;;;14.66;41.99;100240.00;1714051;83;20211;-81
2022/10/11 09:53:59;;;;;;;;;;;;;;;14.78;40.54;100244.80;1714316;83;20271;-83
2022/10/11 09:56:27;;;;;;;;;;;;;;;14.89;40.15;100242.17;1714260;83;20208;-82
2022/10/11 09:59:08;;;;;;;;;;;;;;;15.03;39.45;100243.80;1714368;83;21145;-82
2022/10/11 10:01:34;;;;;;;;;;;;;;;15.00;40.64;100236.83;1710118;83;20233;-83
2022/10/11 10:04:09;;;;;;;;;;;;;;;15.15;40.73;100237.13;1714326;83;20216;-81
2022/10/11 10:06:36;;;;;;;;;;;;;;;15.30;39.03;100235.59;1714004;83;20196;-82
2022/10/11 10:09:26;;;;;;;;;;;;;;;15.43;39.06;100231.48;1714043;83;20141;-80
2022/10/11 10:11:54;;;;;;;;;;;;;;;15.58;39.31;100233.50;1714280;83;21164;-82
2022/10/11 10:14:24;;;;;;;;;;;;;;;15.65;39.42;100239.84;1714269;83;20150;-82
2022/10/11 10:17:05;;;;;;;;;;;;;;;15.73;39.86;100225.77;1714186;83;20232;-82
2022/10/11 10:19:36;;;;;;;;;;;;;;;15.89;38.98;100226.84;1706900;83;20506;-82
2022/10/11 10:22:02;;;;;;;;;;;;;;;16.06;38.52;100226.55;1710208;83;20212;-83
2022/10/11 10:24:41;;;;;;;;;;;;;;;16.00;37.44;100222.84;1714102;83;21149;-81
2022/10/11 10:27:17;;;;;;;;;;;;;;;15.81;37.57;100214.39;1714442;83;20480;-82
2022/10/11 10:29:49;;;;;;;;;;;;;;;15.66;36.72;100213.72;1714274;83;20244;-82
2022/10/11 10:32:21;;;;;;;;;;;;;;;15.46;37.94;100211.47;1703164;83;20208;-82
2022/10/11 10:35:20;;;;;;;;;;;;;;;15.45;38.09;100217.72;1714185;83;20228;-83
2022/10/11 10:37:59;;;;;;;;;;;;;;;15.51;36.79;100216.11;1714157;83;21214;-83
2022/10/11 10:40:41;;;;;;;;;;;;;;;15.58;37.73;100208.74;1714051;83;20212;-84
2022/10/11 10:43:14;;;;;;;;;;;;;;;15.75;37.11;100218.19;1714444;83;20212;-83
2022/10/11 10:46:12;;;;;;;;;;;;;;;15.77;36.23;100203.53;1713475;83;20173;-80
2022/10/11 10:49:00;;;;;;;;;;;;;;;15.76;36.27;100204.45;1714520;83;20192;-82
2022/10/11 10:51:30;;;;;;;;;;;;;;;15.90;37.26;100202.05;1713865;83;21092;-84
2022/10/11 10:54:03;;;;;;;;;;;;;;;16.01;35.84;100197.55;1714362;83;20166;-82
2022/10/11 10:56:33;;;;;;;;;;;;;;;15.94;36.57;100203.61;1697056;83;20228;-83
2022/10/11 10:59:38;;;;;;;;;;;;;;;15.79;35.33;100191.05;1714141;83;20185;-80
2022/10/11 11:02:17;;;;;;;;;;;;;;;15.68;35.96;100187.98;1714320;83;20150;-83
2022/10/11 11:04:50;;;;;;;;;;;;;;;15.65;35.60;100181.48;1714399;83;21147;-84
2022/10/11 11:07:26;;;;;;;;;;;;;;;15.68;36.56;100182.67;1712574;83;20190;-83
2022/10/11 11:09:56;;;;;;;;;;;;;;;15.86;37.43;100179.22;1714555;83;20294;-83
2022/10/11 11:12:41;;;;;;;;;;;;;;;16.05;36.36;100177.03;1714029;83;20197;-83
2022/10/11 11:15:17;;;;;;;;;;;;;;;16.21;36.13;100175.86;1714324;83;20181;-81
2022/10/11 11:17:48;;;;;;;;;;;;;;;16.29;35.69;100177.22;1714224;83;21290;-85
2022/10/11 11:20:34;;;;;;;;;;;;;;;16.25;34.57;100168.98;1714013;83;20209;-83
2022/10/11 11:23:16;;;;;;;;;;;;;;;16.23;35.22;100166.02;1713979;83;20224;-83
2022/10/11 11:26:07;;;;;;;;;;;;;;;16.39;35.13;100163.48;1714641;83;20273;-83
2022/10/11 11:28:58;;;;;;;;;;;;;;;16.60;34.63;100159.78;1714065;83;20196;-82
2022/10/11 11:31:28;;;;;;;;;;;;;;;16.85;35.33;100161.26;1714590;83;21114;-83
2022/10/11 11:33:58;;;;;;;;;;;;;;;17.02;35.19;100157.27;1711396;83;20229;-82
2022/10/11 11:36:49;;;;;;;;;;;;;;;17.12;34.59;100155.48;1708859;84;20205;-83
2022/10/11 11:39:24;;;;;;;;;;;;;;;17.23;34.80;100147.78;1708689;84;20472;-80
2022/10/11 11:41:55;;;;;;;;;;;;;;;17.36;34.59;100154.17;1708959;84;20170;-83
2022/10/11 11:44:39;;;;;;;;;;;;;;;17.27;35.21;100153.34;1707995;84;21118;-82
2022/10/11 11:47:10;;;;;;;;;;;;;;;17.31;35.27;100148.23;1708765;84;20204;-82
2022/10/11 11:49:39;;;;;;;;;;;;;;;17.45;35.03;100131.58;1708567;84;20267;-82
2022/10/11 11:52:07;;;;;;;;;;;;;;;17.62;34.70;100138.65;1708756;84;20456;-84
2022/10/11 11:54:40;;;;;;;;;;;;;;;17.79;34.22;100139.06;1708684;84;20133;-83
2022/10/11 11:57:22;;;;;;;;;;;;;;;17.92;33.03;100139.27;1708843;84;21115;-82
2022/10/11 11:59:59;;;;;;;;;;;;;;;17.76;32.36;100136.08;1708482;84;20290;-83
2022/10/11 12:02:40;;;;;;;;;;;;;;;17.54;32.75;100142.19;1708714;83;20240;-84
2022/10/11 12:05:07;;;;;;;;;;;;;;;17.31;30.94;100134.94;1708879;84;20220;-82
2022/10/11 12:07:52;;;;;;;;;;;;;;;17.15;32.14;100137.56;1708740;84;20232;-82
2022/10/11 12:10:34;;;;;;;;;;;;;;;17.04;30.93;100126.13;1708839;84;21118;-83
2022/10/11 12:13:22;;;;;;;;;;;;;;;17.01;31.00;100122.33;1708572;84;20237;-85
2022/10/11 12:16:09;;;;;;;;;;;;;;;17.09;31.03;100125.42;1680844;84;20182;-83
2022/10/11 12:19:01;;;;;;;;;;;;;;;17.20;31.59;100118.71;1708534;84;20226;-84
2022/10/11 12:21:41;;;;;;;;;;;;;;;17.44;31.39;100116.06;1708739;84;20185;-82
2022/10/11 12:24:09;;;;;;;;;;;;;;;17.65;31.33;100119.83;1708753;84;21149;-81
2022/10/11 12:26:49;;;;;;;;;;;;;;;17.76;31.33;100121.92;1708916;84;20215;-83
2022/10/11 12:29:23;;;;;;;;;;;;;;;17.95;32.26;100116.47;1706100;84;20193;-82
2022/10/11 12:32:04;;;;;;;;;;;;;;;18.24;30.90;100117.95;1708784;83;20212;-83
2022/10/11 12:34:38;;;;;;;;;;;;;;;18.48;30.84;100118.37;1712103;83;20176;-83
2022/10/11 12:37:21;;;;;;;;;;;;;;;18.59;30.70;100121.26;1714635;83;21108;-82
2022/10/11 12:39:58;;;;;;;;;;;;;;;18.73;30.14;100109.80;1714299;83;20481;-81
2022/10/11 12:42:32;;;;;;;;;;;;;;;18.93;30.23;100110.84;1713898;83;20197;-82
2022/10/11 12:45:14;;;;;;;;;;;;;;;19.17;30.06;100114.80;1714317;83;20149;-80
2022/10/11 12:47:58;;;;;;;;;;;;;;;19.16;29.65;100117.91;1714262;83;20204;-84
2022/10/11 12:50:32;;;;;;;;;;;;;;;19.20;29.56;100120.80;1714217;83;21103;-81
2022/10/11 12:53:20;;;;;;;;;;;;;;;19.22;30.04;100116.22;1714686;83;20472;-85
2022/10/11 12:55:59;;;;;;;;;;;;;;;19.28;29.82;100118.52;1713974;83;20525;-82
2022/10/11 12:58:37;;;;;;;;;;;;;;;19.27;29.55;100114.13;1714186;83;20514;-84
2022/10/11 13:01:03;;;;;;;;;;;;;;;19.17;29.74;100113.46;1713131;83;20298;-83
2022/10/11 13:03:35;;;;;;;;;;;;;;;19.19;30.22;100105.73;1714375;83;21129;-83